Time;durP1;ratioP1;P1;durP2;ratioP2;P2;SDS_P1;SDS_P2;PMS_P1;PMS_P2;Temp;Humidity;BMP_temperature;BMP_pressure;BME280_temperature;BME280_humidity;BME280_pressure;Samples;Min_cycle;Max_cycle;Signal;HPM_P1;HPM_P2
2021/11/08 00:01:51;;;;;;;16.85;2.50;;;8.50;97.10;;;;;;5034672;28;20405;-87
2021/11/08 00:04:17;;;;;;;18.65;2.67;;;8.50;97.20;;;;;;5028779;28;20045;-87
2021/11/08 00:06:42;;;;;;;17.60;2.50;;;8.50;97.20;;;;;;5030735;28;20045;-85
2021/11/08 00:09:08;;;;;;;15.82;2.22;;;8.50;97.20;;;;;;5023002;28;20470;-85
2021/11/08 00:11:38;;;;;;;15.55;2.30;;;8.50;97.10;;;;;;5037062;28;20037;-84
2021/11/08 00:14:09;;;;;;;15.77;2.97;;;8.50;97.20;;;;;;5031999;28;20056;-84
2021/11/08 00:22:03;;;;;;;15.38;2.65;;;8.60;97.10;;;;;;5034615;28;20464;-84
2021/11/08 00:24:31;;;;;;;15.70;2.28;;;8.50;97.00;;;;;;5036765;28;20037;-84
2021/11/08 00:26:57;;;;;;;11.10;2.15;;;8.60;97.00;;;;;;5036003;28;20041;-84
2021/11/08 00:29:23;;;;;;;9.63;1.88;;;8.60;97.00;;;;;;5032003;28;20069;-85
2021/11/08 00:31:49;;;;;;;11.55;1.98;;;8.60;97.00;;;;;;5030798;28;20137;-84
2021/11/08 00:34:15;;;;;;;13.25;1.83;;;8.60;96.90;;;;;;5022511;28;20083;-84
2021/11/08 00:36:40;;;;;;;9.55;1.83;;;8.60;96.90;;;;;;5054553;28;20049;-85
2021/11/08 00:39:06;;;;;;;16.45;2.63;;;8.60;96.80;;;;;;5036164;28;20073;-84
2021/11/08 00:41:32;;;;;;;11.13;1.92;;;8.60;96.80;;;;;;5032706;28;20053;-85
2021/11/08 00:43:58;;;;;;;11.27;2.10;;;8.60;96.80;;;;;;5055430;28;20424;-84
2021/11/08 00:46:23;;;;;;;15.07;2.33;;;8.60;96.70;;;;;;5052085;28;20103;-84
2021/11/08 00:48:50;;;;;;;17.00;2.13;;;8.60;96.80;;;;;;5055623;28;20131;-85
2021/11/08 00:51:17;;;;;;;10.57;1.63;;;8.60;96.70;;;;;;5072126;28;20056;-85
2021/11/08 00:53:44;;;;;;;14.38;2.05;;;8.60;96.70;;;;;;5059431;28;20044;-85
2021/11/08 00:56:15;;;;;;;10.98;2.00;;;8.50;96.60;;;;;;5054996;28;20080;-84
2021/11/08 00:58:42;;;;;;;11.25;1.88;;;8.50;96.70;;;;;;5057422;28;20057;-84
2021/11/08 01:01:09;;;;;;;12.10;1.98;;;8.60;96.70;;;;;;5053295;28;20094;-84
2021/11/08 01:03:39;;;;;;;11.05;1.80;;;8.60;96.70;;;;;;5040937;28;20067;-85
2021/11/08 01:06:09;;;;;;;12.15;1.90;;;8.60;96.70;;;;;;5042457;28;20174;-84
2021/11/08 01:08:35;;;;;;;12.70;1.83;;;8.60;96.70;;;;;;5052942;28;20116;-84
2021/11/08 01:11:01;;;;;;;13.98;2.22;;;8.60;96.70;;;;;;5040331;28;20127;-84
2021/11/08 01:13:27;;;;;;;17.63;2.10;;;8.60;96.70;;;;;;5059555;28;20055;-84
2021/11/08 01:15:55;;;;;;;10.95;1.77;;;8.60;96.70;;;;;;5054748;28;20065;-84
2021/11/08 01:18:21;;;;;;;19.15;2.17;;;8.60;96.70;;;;;;5049943;28;20036;-84
2021/11/08 01:20:47;;;;;;;14.32;1.92;;;8.60;96.70;;;;;;5037658;28;20059;-84
2021/11/08 01:23:15;;;;;;;9.70;1.77;;;8.60;96.80;;;;;;5039082;28;20045;-84
2021/11/08 01:25:42;;;;;;;12.65;1.85;;;8.60;96.80;;;;;;5037103;28;20055;-84
2021/11/08 01:28:09;;;;;;;12.48;1.80;;;8.60;96.80;;;;;;5038431;28;20045;-84
2021/11/08 01:30:35;;;;;;;14.43;1.98;;;8.60;97.10;;;;;;5037071;28;20053;-84
2021/11/08 01:33:07;;;;;;;8.43;1.67;;;8.60;96.70;;;;;;5045278;28;20128;-84
2021/11/08 01:35:43;;;;;;;12.45;2.33;;;8.50;96.70;;;;;;5040069;28;20048;-83
2021/11/08 01:40:43;;;;;;;;;;;8.50;96.70;;;;;;5035398;28;20057;-83
2021/11/08 01:43:11;;;;;;;11.57;1.83;;;8.40;96.40;;;;;;5023686;28;19921;-84
2021/11/08 01:45:37;;;;;;;7.47;1.20;;;8.40;96.80;;;;;;5017327;28;20049;-84
2021/11/08 01:48:04;;;;;;;8.70;1.55;;;8.40;96.80;;;;;;5025211;28;20037;-84
2021/11/08 01:50:30;;;;;;;8.68;1.63;;;8.40;96.80;;;;;;5029751;28;20053;-84
2021/11/08 01:52:56;;;;;;;9.00;1.80;;;8.40;96.80;;;;;;5036008;28;20041;-85
2021/11/08 01:55:22;;;;;;;6.72;1.35;;;8.40;97.00;;;;;;5020418;28;20120;-84
2021/11/08 01:57:49;;;;;;;7.45;1.60;;;8.30;97.40;;;;;;5022440;28;20117;-84
2021/11/08 02:00:16;;;;;;;8.60;1.70;;;8.30;97.20;;;;;;5016461;28;20076;-83
2021/11/08 02:02:42;;;;;;;8.85;1.75;;;8.30;97.30;;;;;;5018320;28;20040;-84
2021/11/08 02:05:09;;;;;;;12.40;1.90;;;8.30;97.30;;;;;;5034658;28;20025;-84
2021/11/08 02:07:35;;;;;;;5.78;1.20;;;8.30;97.30;;;;;;5029234;28;20041;-84
2021/11/08 02:10:04;;;;;;;8.35;1.58;;;8.30;97.20;;;;;;5008929;28;20056;-84
2021/11/08 02:12:30;;;;;;;10.65;1.67;;;8.30;97.20;;;;;;5009396;28;20041;-84
2021/11/08 02:14:55;;;;;;;8.52;1.27;;;8.30;97.20;;;;;;5017205;28;20071;-84
2021/11/08 02:17:21;;;;;;;6.55;1.35;;;8.20;97.20;;;;;;5015313;28;20091;-84
2021/11/08 02:19:47;;;;;;;8.07;1.38;;;8.20;97.10;;;;;;5034867;28;20052;-84
2021/11/08 02:22:13;;;;;;;12.50;1.83;;;8.20;97.10;;;;;;5034040;28;20036;-84
2021/11/08 02:24:41;;;;;;;9.43;1.70;;;8.20;97.10;;;;;;5033012;28;20131;-84
2021/11/08 02:27:08;;;;;;;6.55;1.27;;;8.10;97.00;;;;;;5044592;28;20044;-84
2021/11/08 02:29:34;;;;;;;6.95;1.55;;;8.10;97.00;;;;;;5033747;28;20060;-84
2021/11/08 02:32:00;;;;;;;7.88;1.73;;;8.10;97.10;;;;;;5052547;28;20032;-84
2021/11/08 02:34:26;;;;;;;9.82;1.50;;;8.10;97.20;;;;;;5023267;28;20053;-84
2021/11/08 02:36:52;;;;;;;8.27;1.45;;;8.10;97.20;;;;;;5015694;28;20039;-85
2021/11/08 02:39:28;;;;;;;9.70;1.40;;;8.00;97.20;;;;;;5014651;28;20038;-84
2021/11/08 02:41:54;;;;;;;8.45;1.45;;;8.00;97.30;;;;;;5010547;28;20047;-84
2021/11/08 02:44:19;;;;;;;6.38;1.48;;;8.00;97.30;;;;;;5035311;28;20124;-84
2021/11/08 02:46:45;;;;;;;8.02;1.30;;;7.90;97.20;;;;;;5034647;28;20056;-84
2021/11/08 02:49:13;;;;;;;6.28;1.30;;;7.90;97.20;;;;;;5035490;28;20041;-84
2021/11/08 02:51:44;;;;;;;7.20;1.10;;;7.90;97.30;;;;;;5035424;28;20473;-84
2021/11/08 02:54:26;;;;;;;8.43;1.52;;;7.80;97.30;;;;;;5034559;28;20041;-83
2021/11/08 02:56:52;;;;;;;7.38;1.50;;;7.80;97.30;;;;;;5036635;28;20098;-84
2021/11/08 02:59:18;;;;;;;8.35;1.40;;;7.80;97.40;;;;;;5033765;28;20053;-84
2021/11/08 03:01:46;;;;;;;8.18;1.50;;;7.80;97.40;;;;;;5052554;28;20405;-84
2021/11/08 03:04:16;;;;;;;8.65;1.10;;;7.80;97.50;;;;;;5035078;28;20037;-84
2021/11/08 03:06:42;;;;;;;19.48;2.10;;;7.70;97.40;;;;;;5034578;28;20493;-85
2021/11/08 03:09:23;;;;;;;8.20;1.30;;;7.80;97.50;;;;;;5052978;28;20045;-84
2021/11/08 03:11:49;;;;;;;13.25;1.80;;;7.80;97.50;;;;;;5029976;28;20504;-84
2021/11/08 03:14:19;;;;;;;12.27;1.70;;;7.80;97.50;;;;;;5052333;28;20041;-84
2021/11/08 03:16:59;;;;;;;12.82;1.90;;;7.80;97.50;;;;;;5035308;28;20041;-84
2021/11/08 03:21:55;;;;;;;9.55;1.75;;;7.80;97.60;;;;;;5050828;28;20053;-84
2021/11/08 03:24:39;;;;;;;8.45;1.60;;;7.80;97.50;;;;;;5034691;28;20083;-84
2021/11/08 03:27:28;;;;;;;15.00;2.10;;;7.80;97.50;;;;;;5020701;28;20041;-84
2021/11/08 03:29:54;;;;;;;7.70;1.45;;;7.80;98.00;;;;;;5034685;28;20033;-85
2021/11/08 03:32:22;;;;;;;12.68;1.75;;;7.80;97.70;;;;;;5034842;28;20086;-85
2021/11/08 03:35:06;;;;;;;9.90;1.88;;;7.80;97.60;;;;;;5034481;28;20041;-84
2021/11/08 03:37:37;;;;;;;15.80;1.90;;;7.70;97.50;;;;;;5037416;28;20045;-84
2021/11/08 03:40:07;;;;;;;13.77;2.10;;;7.70;97.50;;;;;;5038173;28;20041;-84
2021/11/08 03:42:35;;;;;;;10.10;1.80;;;7.70;97.50;;;;;;5056001;28;20095;-85
2021/11/08 03:45:03;;;;;;;6.57;1.58;;;7.70;97.60;;;;;;5038139;28;20477;-84
2021/11/08 03:47:30;;;;;;;10.77;1.70;;;7.70;97.60;;;;;;5038883;28;20056;-84
2021/11/08 03:49:57;;;;;;;8.25;1.60;;;7.70;97.50;;;;;;5037484;28;20059;-84
2021/11/08 03:52:23;;;;;;;8.57;1.55;;;7.70;97.70;;;;;;5056573;28;20045;-85
2021/11/08 03:54:49;;;;;;;11.60;1.73;;;7.70;97.80;;;;;;5038385;28;20139;-84
2021/11/08 03:57:15;;;;;;;9.85;1.58;;;7.70;97.70;;;;;;5055801;28;20116;-84
2021/11/08 03:59:40;;;;;;;9.68;1.40;;;7.70;97.70;;;;;;5037814;28;20037;-84
2021/11/08 04:02:06;;;;;;;9.70;1.30;;;7.70;97.70;;;;;;5039073;28;20098;-84
2021/11/08 04:04:31;;;;;;;8.77;1.33;;;7.70;97.60;;;;;;5038338;28;20044;-83
2021/11/08 04:06:57;;;;;;;11.18;1.98;;;7.70;97.60;;;;;;5037830;28;20048;-84
2021/11/08 04:09:23;;;;;;;8.23;1.55;;;7.60;97.60;;;;;;5038189;28;20051;-84
2021/11/08 04:11:50;;;;;;;12.93;1.90;;;7.60;97.50;;;;;;5037239;28;20048;-85
2021/11/08 04:14:16;;;;;;;7.93;1.55;;;7.60;97.60;;;;;;5037861;28;20040;-84
2021/11/08 04:16:44;;;;;;;9.57;1.80;;;7.60;97.60;;;;;;5037314;28;20052;-84
2021/11/08 04:19:10;;;;;;;7.72;1.23;;;7.60;97.50;;;;;;5037491;28;20037;-84
2021/11/08 04:21:37;;;;;;;11.57;1.58;;;7.60;97.50;;;;;;5038096;28;20056;-84
2021/11/08 04:24:04;;;;;;;11.13;1.73;;;7.60;97.50;;;;;;5037112;28;20056;-84
2021/11/08 04:26:31;;;;;;;8.60;1.42;;;7.60;97.50;;;;;;5037893;28;20511;-84
2021/11/08 04:29:02;;;;;;;5.38;1.23;;;7.60;97.60;;;;;;5037966;28;20063;-84
2021/11/08 04:31:28;;;;;;;11.82;1.58;;;7.60;97.60;;;;;;5036785;28;20072;-83
2021/11/08 04:34:06;;;;;;;9.02;1.67;;;7.60;97.60;;;;;;5038639;28;20036;-84
2021/11/08 04:39:27;;;;;;;12.10;1.90;;;7.60;97.50;;;;;;5036770;28;20587;-83
2021/11/08 04:50:05;;;;;;;6.72;1.33;;;7.70;97.60;;;;;;5054611;28;20141;-83
2021/11/08 04:58:16;;;;;;;5.10;1.00;;;7.60;97.40;;;;;;5055312;28;20064;-83
2021/11/08 05:25:12;;;;;;;5.72;1.52;;;7.60;97.60;;;;;;5045595;28;20072;-83
2021/11/08 05:30:22;;;;;;;6.13;1.20;;;7.60;97.80;;;;;;5035895;28;20053;-83
2021/11/08 05:32:49;;;;;;;5.90;1.38;;;7.60;97.90;;;;;;5032951;28;20033;-83
2021/11/08 05:35:16;;;;;;;11.85;1.90;;;7.60;97.80;;;;;;5025886;28;20064;-84
2021/11/08 05:37:45;;;;;;;10.48;1.48;;;7.50;97.80;;;;;;5030472;28;20041;-84
2021/11/08 05:40:16;;;;;;;12.07;1.40;;;7.60;97.80;;;;;;5049651;28;20400;-82
2021/11/08 05:42:43;;;;;;;7.68;1.40;;;7.50;97.80;;;;;;5035503;28;20436;-87
2021/11/08 05:45:11;;;;;;;9.95;1.42;;;7.50;97.70;;;;;;5036930;28;20155;-86
2021/11/08 05:47:38;;;;;;;12.13;1.80;;;7.50;97.70;;;;;;5036720;28;20037;-86
2021/11/08 05:50:06;;;;;;;7.25;1.48;;;7.50;97.70;;;;;;5035098;28;20041;-84
2021/11/08 05:52:32;;;;;;;9.88;1.52;;;7.50;97.70;;;;;;5036584;28;20072;-87
2021/11/08 05:54:58;;;;;;;9.45;1.42;;;7.50;97.70;;;;;;5036583;28;20131;-85
2021/11/08 05:57:47;;;;;;;7.35;1.08;;;7.50;97.70;;;;;;5043367;28;20044;-84
2021/11/08 06:49:37;;;;;;;12.30;1.67;;;7.50;97.90;;;;;;5027685;28;20084;-87
2021/11/08 06:52:04;;;;;;;12.05;1.60;;;7.50;97.80;;;;;;5017708;28;20037;-86
2021/11/08 06:54:30;;;;;;;8.68;1.38;;;7.50;97.90;;;;;;5033843;28;20052;-85
2021/11/08 06:57:05;;;;;;;14.02;2.05;;;7.50;97.90;;;;;;5032444;28;20128;-85
2021/11/08 06:59:30;;;;;;;10.15;1.65;;;7.60;98.00;;;;;;5032766;28;20485;-85
2021/11/08 07:01:56;;;;;;;9.82;1.80;;;7.50;98.00;;;;;;5032227;28;20060;-85
2021/11/08 07:04:24;;;;;;;9.57;1.58;;;7.60;98.00;;;;;;5033135;28;20041;-84
2021/11/08 07:06:49;;;;;;;8.15;1.33;;;7.60;98.00;;;;;;5032534;28;20054;-84
2021/11/08 07:09:15;;;;;;;8.40;1.70;;;7.60;98.00;;;;;;5032373;28;20360;-86
2021/11/08 07:11:42;;;;;;;11.38;1.67;;;7.60;97.90;;;;;;5034406;28;20091;-85
2021/11/08 07:14:09;;;;;;;13.02;1.90;;;7.60;98.00;;;;;;5035511;28;20069;-85
2021/11/08 07:16:35;;;;;;;9.88;1.60;;;7.60;98.00;;;;;;5037635;28;20052;-84
2021/11/08 07:19:01;;;;;;;9.25;1.80;;;7.60;97.90;;;;;;5037310;28;20080;-84
2021/11/08 07:21:27;;;;;;;8.10;1.48;;;7.60;97.90;;;;;;5035032;28;20087;-85
2021/11/08 07:23:52;;;;;;;13.10;2.10;;;7.60;98.00;;;;;;5036422;28;20041;-84
2021/11/08 07:26:18;;;;;;;8.85;1.60;;;7.60;98.00;;;;;;5036152;28;20061;-85
2021/11/08 07:28:44;;;;;;;8.15;1.38;;;7.60;98.00;;;;;;5035520;28;20041;-85
2021/11/08 07:31:10;;;;;;;10.88;1.70;;;7.60;97.90;;;;;;5035541;28;20049;-84
2021/11/08 07:33:36;;;;;;;13.68;2.00;;;7.60;97.90;;;;;;5035263;28;20045;-86
2021/11/08 07:36:02;;;;;;;8.57;1.80;;;7.60;98.00;;;;;;5035956;28;20493;-86
2021/11/08 07:38:28;;;;;;;12.73;1.95;;;7.60;98.00;;;;;;5035206;28;20045;-85
2021/11/08 07:40:53;;;;;;;16.60;2.47;;;7.60;97.90;;;;;;5034828;28;20065;-85
2021/11/08 07:43:19;;;;;;;17.42;2.53;;;7.60;98.00;;;;;;5019309;28;20103;-84
2021/11/08 07:45:44;;;;;;;11.75;1.80;;;7.70;98.10;;;;;;5019307;28;20041;-86
2021/11/08 07:48:11;;;;;;;19.77;2.60;;;7.70;98.20;;;;;;5018511;28;20037;-84
2021/11/08 07:50:38;;;;;;;13.70;2.40;;;7.70;98.20;;;;;;5019332;28;20057;-84
2021/11/08 07:53:04;;;;;;;8.32;1.40;;;7.70;98.30;;;;;;5019665;28;20042;-85
2021/11/08 07:55:29;;;;;;;15.95;2.00;;;7.80;98.20;;;;;;5018343;28;20068;-84
2021/11/08 07:57:55;;;;;;;16.15;2.10;;;7.80;98.20;;;;;;5019216;28;20037;-85
2021/11/08 08:00:21;;;;;;;16.55;2.50;;;7.80;98.30;;;;;;5023349;28;20401;-85
2021/11/08 08:02:49;;;;;;;11.75;1.95;;;7.80;98.30;;;;;;5034407;28;20041;-84
2021/11/08 08:05:16;;;;;;;11.43;1.92;;;7.90;98.30;;;;;;5035419;28;20053;-85
2021/11/08 08:07:41;;;;;;;13.32;2.00;;;7.90;98.30;;;;;;5035537;28;20440;-84
2021/11/08 08:10:07;;;;;;;18.83;2.28;;;7.90;98.30;;;;;;5034496;28;20103;-84
2021/11/08 08:12:33;;;;;;;10.50;2.33;;;7.90;98.30;;;;;;5035418;28;20041;-84
2021/11/08 08:14:59;;;;;;;17.15;2.38;;;8.00;98.30;;;;;;5034988;28;20399;-84
2021/11/08 08:17:24;;;;;;;10.32;1.90;;;8.00;98.60;;;;;;5034766;28;20037;-84
2021/11/08 08:19:50;;;;;;;11.63;2.00;;;8.00;98.30;;;;;;5028868;28;20083;-84
2021/11/08 08:22:15;;;;;;;18.23;2.40;;;8.00;98.20;;;;;;5019052;28;20037;-84
2021/11/08 08:24:41;;;;;;;12.70;2.05;;;8.00;98.30;;;;;;5019058;28;20447;-84
2021/11/08 08:27:07;;;;;;;17.77;2.25;;;8.10;98.30;;;;;;5034668;28;20159;-85
2021/11/08 08:29:34;;;;;;;15.13;2.40;;;8.10;98.30;;;;;;5033052;28;20056;-84
2021/11/08 08:32:00;;;;;;;11.30;1.80;;;8.10;98.40;;;;;;5034158;28;20042;-85
2021/11/08 08:34:28;;;;;;;13.45;2.25;;;8.20;98.40;;;;;;5034523;28;20092;-84
2021/11/08 08:36:56;;;;;;;15.85;2.63;;;8.20;98.40;;;;;;5034883;28;20440;-84
2021/11/08 08:39:23;;;;;;;16.52;2.58;;;8.20;98.40;;;;;;5034591;28;20099;-85
2021/11/08 08:41:50;;;;;;;15.52;2.33;;;8.30;98.50;;;;;;5018547;28;20068;-84
2021/11/08 08:44:16;;;;;;;21.45;2.78;;;8.30;98.50;;;;;;5027329;28;20382;-84
2021/11/08 08:46:43;;;;;;;19.52;2.58;;;8.40;98.60;;;;;;5018141;28;20079;-84
2021/11/08 08:49:08;;;;;;;18.27;2.15;;;8.50;98.70;;;;;;5017215;28;20071;-85
2021/11/08 08:51:35;;;;;;;18.05;2.50;;;8.50;98.70;;;;;;5017539;28;20041;-85
2021/11/08 08:54:01;;;;;;;18.92;2.72;;;8.60;98.70;;;;;;5027696;28;20041;-85
2021/11/08 08:56:26;;;;;;;18.77;2.60;;;8.70;98.70;;;;;;5021574;28;20413;-85
2021/11/08 08:58:54;;;;;;;19.23;2.28;;;8.70;98.70;;;;;;5017267;28;20037;-85
2021/11/08 09:01:21;;;;;;;18.52;2.42;;;8.80;98.60;;;;;;5017855;28;20132;-84
2021/11/08 09:03:47;;;;;;;16.17;1.92;;;8.80;98.60;;;;;;5018233;28;20497;-84
2021/11/08 09:06:14;;;;;;;19.20;2.90;;;8.90;98.60;;;;;;5016710;28;20923;-84
2021/11/08 09:08:40;;;;;;;14.52;2.30;;;9.00;98.60;;;;;;5018677;28;20076;-84
2021/11/08 09:11:06;;;;;;;18.00;2.63;;;9.00;98.50;;;;;;5017581;28;20099;-86
2021/11/08 09:13:34;;;;;;;14.52;2.55;;;9.00;98.40;;;;;;5017779;28;20045;-83
2021/11/08 09:16:00;;;;;;;14.93;2.28;;;9.00;98.40;;;;;;5017541;28;20050;-83
2021/11/08 09:18:25;;;;;;;19.08;2.65;;;9.10;98.40;;;;;;5021544;28;20099;-84
2021/11/08 09:20:51;;;;;;;14.07;2.13;;;9.20;98.50;;;;;;5017242;28;20056;-83
2021/11/08 09:23:16;;;;;;;17.83;2.10;;;9.10;98.50;;;;;;5019232;28;20132;-85
2021/11/08 09:25:42;;;;;;;17.00;2.22;;;9.20;98.60;;;;;;5020294;28;20559;-82
2021/11/08 09:28:09;;;;;;;13.18;2.03;;;9.20;98.60;;;;;;5016994;28;20044;-88
2021/11/08 09:30:40;;;;;;;14.13;1.85;;;9.30;98.60;;;;;;5019399;28;20041;-86
2021/11/08 09:33:06;;;;;;;18.88;2.40;;;9.30;98.60;;;;;;5017644;28;20081;-85
2021/11/08 09:35:36;;;;;;;17.05;2.28;;;9.30;98.60;;;;;;5017398;28;20041;-86
2021/11/08 09:38:06;;;;;;;14.13;1.98;;;9.40;98.60;;;;;;5018398;28;20474;-86
2021/11/08 09:40:33;;;;;;;19.23;2.40;;;9.40;98.70;;;;;;5022734;28;20041;-83
2021/11/08 09:42:59;;;;;;;12.15;2.25;;;9.40;98.70;;;;;;5056035;28;20503;-85
2021/11/08 09:45:24;;;;;;;16.40;2.20;;;9.40;98.70;;;;;;5057016;28;20045;-84
2021/11/08 09:47:51;;;;;;;16.08;2.03;;;9.50;98.80;;;;;;5056304;28;20047;-83
2021/11/08 09:50:20;;;;;;;14.25;2.10;;;9.50;98.80;;;;;;5056959;28;20136;-83
2021/11/08 09:52:47;;;;;;;18.63;2.42;;;9.50;98.80;;;;;;5055000;28;20029;-83
2021/11/08 09:55:17;;;;;;;14.15;2.00;;;9.50;98.90;;;;;;5055633;28;20553;-83
2021/11/08 09:57:42;;;;;;;13.48;2.25;;;9.60;99.00;;;;;;5055703;28;20036;-83
2021/11/08 10:00:37;;;;;;;13.95;1.88;;;9.60;99.00;;;;;;5040335;28;20068;-83
2021/11/08 10:03:05;;;;;;;13.77;2.05;;;9.60;99.00;;;;;;5006059;28;20044;-84
2021/11/08 10:05:34;;;;;;;19.23;1.90;;;9.60;99.10;;;;;;5040395;28;20049;-83
2021/11/08 10:08:00;;;;;;;12.80;1.95;;;9.60;99.10;;;;;;5040164;28;20040;-83
2021/11/08 10:10:28;;;;;;;11.57;2.08;;;9.70;99.10;;;;;;5035677;28;20045;-83
2021/11/08 10:13:13;;;;;;;14.38;2.00;;;9.70;99.20;;;;;;5050959;28;20048;-84
2021/11/08 10:15:46;;;;;;;13.90;1.85;;;9.70;99.20;;;;;;5041056;28;20037;-83
2021/11/08 10:18:12;;;;;;;16.00;1.80;;;9.70;99.20;;;;;;5053644;28;20044;-84
2021/11/08 10:20:44;;;;;;;13.30;1.80;;;9.80;99.20;;;;;;5046131;28;20073;-83
2021/11/08 10:23:13;;;;;;;15.57;2.25;;;9.80;99.30;;;;;;5025562;28;20044;-84
2021/11/08 10:25:41;;;;;;;15.75;2.03;;;9.80;99.30;;;;;;5036149;28;20045;-84
2021/11/08 10:28:13;;;;;;;14.18;2.17;;;9.90;99.20;;;;;;5035675;28;20040;-83
2021/11/08 10:30:39;;;;;;;14.30;2.33;;;9.90;99.30;;;;;;5028254;28;20473;-83
2021/11/08 10:33:06;;;;;;;16.23;2.00;;;9.90;99.30;;;;;;5047861;28;20452;-84
2021/11/08 10:35:52;;;;;;;13.30;1.92;;;10.00;99.30;;;;;;5036216;28;20405;-84
2021/11/08 10:38:24;;;;;;;11.82;1.92;;;10.00;99.30;;;;;;5042977;28;20045;-84
2021/11/08 10:41:02;;;;;;;11.45;2.00;;;10.00;99.30;;;;;;5038691;28;20094;-84
2021/11/08 10:43:35;;;;;;;14.65;1.90;;;10.00;99.20;;;;;;5034638;28;20052;-84
2021/11/08 10:46:06;;;;;;;13.68;2.20;;;10.10;99.30;;;;;;5034489;28;20049;-83
2021/11/08 10:48:34;;;;;;;11.68;1.80;;;10.10;99.40;;;;;;5035342;28;20045;-83
2021/11/08 10:51:01;;;;;;;14.30;2.35;;;10.10;99.40;;;;;;5034541;28;20548;-83
2021/11/08 10:53:30;;;;;;;16.20;2.25;;;10.20;99.40;;;;;;5035906;28;20056;-83
2021/11/08 10:56:06;;;;;;;13.50;2.13;;;10.20;99.40;;;;;;5035954;28;20390;-83
2021/11/08 10:58:32;;;;;;;15.73;2.03;;;10.20;99.50;;;;;;5035704;28;20071;-82
2021/11/08 11:01:01;;;;;;;14.38;1.98;;;10.20;99.50;;;;;;5037121;28;20124;-82
2021/11/08 11:03:28;;;;;;;8.27;1.63;;;10.20;99.50;;;;;;5035721;28;20048;-83
2021/11/08 11:06:01;;;;;;;12.77;2.05;;;10.30;99.50;;;;;;5034338;28;20045;-83
2021/11/08 11:08:27;;;;;;;;;;;10.20;99.50;;;;;;5035535;28;20052;-82
2021/11/08 11:10:59;;;;;;;9.82;1.60;;;10.20;99.50;;;;;;5035207;28;19920;-82
2021/11/08 11:13:26;;;;;;;10.55;1.30;;;10.20;99.60;;;;;;5040037;28;20041;-83
2021/11/08 11:16:00;;;;;;;12.60;1.50;;;10.20;99.60;;;;;;5052102;28;20045;-83
2021/11/08 11:18:31;;;;;;;10.02;1.75;;;10.30;99.70;;;;;;5051983;28;20049;-83
2021/11/08 11:20:57;;;;;;;13.70;1.83;;;10.30;99.70;;;;;;5050949;28;20124;-83
2021/11/08 11:23:27;;;;;;;10.50;1.42;;;10.30;99.80;;;;;;5051583;28;20037;-83
2021/11/08 11:26:04;;;;;;;12.00;1.40;;;10.40;99.80;;;;;;5040706;28;20115;-83
2021/11/08 11:28:35;;;;;;;11.63;2.40;;;10.40;99.80;;;;;;5035107;28;20056;-83
2021/11/08 11:31:12;;;;;;;11.93;2.03;;;10.40;99.90;;;;;;5040724;28;20136;-83
2021/11/08 11:33:39;;;;;;;12.48;1.70;;;10.40;99.80;;;;;;5050882;28;20048;-83
2021/11/08 11:36:11;;;;;;;13.55;1.92;;;10.50;99.80;;;;;;5036963;28;20052;-82
2021/11/08 11:38:44;;;;;;;12.15;1.80;;;10.60;99.80;;;;;;5035457;28;20048;-83
2021/11/08 11:41:16;;;;;;;13.55;1.90;;;10.50;99.80;;;;;;5034103;28;20056;-83
2021/11/08 11:43:47;;;;;;;13.32;1.80;;;10.60;99.80;;;;;;5035575;28;20044;-83
2021/11/08 11:46:22;;;;;;;12.98;1.92;;;10.60;99.70;;;;;;5040220;28;20047;-83
2021/11/08 11:48:48;;;;;;;11.65;1.70;;;10.60;99.70;;;;;;5037400;28;20071;-82
2021/11/08 11:51:31;;;;;;;10.25;1.60;;;10.60;99.70;;;;;;5035592;28;20044;-82
2021/11/08 11:53:57;;;;;;;9.90;1.47;;;10.70;99.70;;;;;;5034536;28;20519;-83
2021/11/08 11:56:25;;;;;;;8.00;1.50;;;10.70;99.70;;;;;;5035628;28;20044;-83
2021/11/08 11:58:51;;;;;;;5.82;1.00;;;10.70;99.70;;;;;;5052600;28;20036;-82
2021/11/08 12:01:21;;;;;;;10.25;1.40;;;10.70;99.70;;;;;;5043275;28;20040;-80
2021/11/08 12:03:48;;;;;;;13.48;1.75;;;10.70;99.70;;;;;;5038485;28;20076;-80
2021/11/08 12:06:35;;;;;;;12.95;1.67;;;10.70;99.70;;;;;;5038504;28;20127;-81
2021/11/08 12:09:05;;;;;;;9.50;1.35;;;10.70;99.80;;;;;;5036706;28;20114;-83
2021/11/08 12:11:34;;;;;;;10.80;1.17;;;10.70;99.80;;;;;;5039652;28;20037;-81
2021/11/08 12:14:04;;;;;;;8.77;1.40;;;10.70;99.90;;;;;;5044942;28;20045;-82
2021/11/08 12:16:32;;;;;;;9.07;1.38;;;10.70;99.90;;;;;;5053974;28;20120;-82
2021/11/08 12:19:00;;;;;;;6.85;1.40;;;10.70;99.80;;;;;;5047873;28;20428;-82
2021/11/08 12:21:30;;;;;;;13.55;1.90;;;10.60;99.80;;;;;;5038955;28;20440;-83
2021/11/08 12:23:58;;;;;;;16.33;2.60;;;10.60;99.80;;;;;;5043135;28;20179;-83
2021/11/08 12:26:30;;;;;;;18.30;2.50;;;10.60;99.80;;;;;;5048378;28;20041;-83
2021/11/08 12:29:13;;;;;;;15.65;2.72;;;10.60;99.80;;;;;;5044524;28;20055;-83
2021/11/08 12:31:39;;;;;;;14.73;2.57;;;10.60;99.80;;;;;;5043053;28;20078;-84
2021/11/08 12:34:14;;;;;;;10.98;1.75;;;10.60;99.80;;;;;;5041363;28;20044;-84
2021/11/08 12:36:41;;;;;;;13.25;2.30;;;10.60;99.80;;;;;;5039492;28;20171;-84
2021/11/08 12:39:17;;;;;;;11.68;2.08;;;10.60;99.90;;;;;;5041173;28;20458;-83
2021/11/08 12:41:50;;;;;;;10.45;1.95;;;10.60;99.90;;;;;;5036927;28;20402;-84
2021/11/08 12:44:36;;;;;;;9.20;1.83;;;10.60;99.90;;;;;;5029615;28;20045;-84
2021/11/08 12:47:03;;;;;;;12.52;2.25;;;10.70;99.80;;;;;;5034398;28;20041;-84
2021/11/08 12:49:31;;;;;;;11.20;1.73;;;10.70;99.90;;;;;;5034359;28;20037;-84
2021/11/08 12:51:58;;;;;;;12.68;1.83;;;10.70;99.90;;;;;;5033863;28;20156;-85
2021/11/08 12:54:26;;;;;;;13.07;2.50;;;10.80;99.90;;;;;;5035066;28;20038;-85
2021/11/08 12:56:52;;;;;;;13.00;1.77;;;10.70;99.90;;;;;;5034465;28;20103;-84
2021/11/08 12:59:26;;;;;;;11.30;1.75;;;10.80;99.90;;;;;;5032956;28;20045;-84
2021/11/08 13:02:07;;;;;;;12.60;1.95;;;10.80;99.90;;;;;;5033369;28;20386;-84
2021/11/08 13:04:44;;;;;;;10.85;2.35;;;10.80;99.90;;;;;;5032640;28;20045;-84
2021/11/08 13:07:11;;;;;;;12.02;1.58;;;10.90;99.90;;;;;;5033036;28;20087;-83
2021/11/08 13:09:40;;;;;;;8.88;1.85;;;10.90;99.90;;;;;;5032811;28;20405;-83
2021/11/08 13:12:23;;;;;;;9.80;1.90;;;10.90;99.70;;;;;;5033094;28;20034;-83
2021/11/08 13:15:03;;;;;;;7.95;1.33;;;10.90;99.60;;;;;;5033357;28;20051;-82
2021/11/08 13:17:29;;;;;;;9.48;1.50;;;10.90;99.60;;;;;;5033993;28;20091;-83
2021/11/08 13:20:02;;;;;;;8.98;1.48;;;10.90;99.60;;;;;;5033002;28;20037;-81
2021/11/08 13:22:32;;;;;;;9.80;1.30;;;10.90;99.50;;;;;;5034486;28;20072;-81
2021/11/08 13:25:09;;;;;;;8.52;1.77;;;10.90;99.40;;;;;;5033732;28;20029;-83
2021/11/08 13:27:37;;;;;;;10.45;1.50;;;10.90;99.30;;;;;;5032598;28;20457;-82
2021/11/08 13:30:08;;;;;;;7.40;1.20;;;11.00;99.20;;;;;;5033542;28;20030;-83
2021/11/08 13:32:35;;;;;;;6.45;1.00;;;11.00;99.00;;;;;;5033080;28;20069;-82
2021/11/08 13:35:24;;;;;;;6.25;1.00;;;11.00;98.80;;;;;;5033748;28;20049;-82
2021/11/08 13:37:51;;;;;;;11.68;1.50;;;11.00;98.50;;;;;;5034178;28;20080;-82
2021/11/08 13:40:21;;;;;;;8.93;1.25;;;11.00;98.60;;;;;;5032235;28;20054;-83
2021/11/08 13:42:49;;;;;;;5.65;0.90;;;11.00;98.60;;;;;;5033429;28;20473;-81
2021/11/08 13:45:15;;;;;;;8.57;1.38;;;11.00;98.50;;;;;;5034360;28;20191;-81
2021/11/08 13:47:44;;;;;;;7.03;1.00;;;11.00;98.50;;;;;;5035494;28;20132;-82
2021/11/08 13:50:19;;;;;;;6.50;1.15;;;11.00;98.40;;;;;;5052476;28;20037;-81
2021/11/08 13:52:45;;;;;;;6.22;1.20;;;11.00;98.50;;;;;;5048178;28;20045;-82
2021/11/08 13:55:14;;;;;;;5.78;1.10;;;11.10;98.50;;;;;;5031825;28;20034;-81
2021/11/08 13:57:44;;;;;;;5.78;1.00;;;11.00;98.50;;;;;;5033514;28;20095;-82
2021/11/08 14:00:18;;;;;;;5.05;1.10;;;11.10;98.50;;;;;;5034422;28;20381;-82
2021/11/08 14:02:44;;;;;;;5.95;1.20;;;11.10;98.50;;;;;;5035927;28;20048;-82
2021/11/08 14:05:12;;;;;;;4.90;0.80;;;11.00;98.50;;;;;;5036206;28;20481;-82
2021/11/08 14:07:39;;;;;;;3.95;0.57;;;11.00;98.40;;;;;;5032703;28;20049;-82
2021/11/08 14:10:10;;;;;;;4.40;0.70;;;11.00;98.40;;;;;;5023087;28;20057;-82
2021/11/08 14:12:37;;;;;;;4.82;0.80;;;11.00;98.30;;;;;;5033125;28;20060;-82
2021/11/08 14:15:04;;;;;;;6.43;0.93;;;11.00;98.30;;;;;;5028474;28;20460;-82
2021/11/08 14:17:33;;;;;;;5.90;0.82;;;11.00;98.30;;;;;;5020379;28;20049;-82
2021/11/08 14:20:06;;;;;;;8.73;1.10;;;11.00;98.30;;;;;;5035708;28;20091;-81
2021/11/08 14:22:34;;;;;;;6.38;1.15;;;11.00;98.30;;;;;;5021733;28;20045;-83
2021/11/08 14:25:02;;;;;;;7.85;1.05;;;11.00;98.30;;;;;;5028089;28;20139;-83
2021/11/08 14:27:31;;;;;;;7.00;1.13;;;11.00;98.40;;;;;;5016811;28;20045;-82
2021/11/08 14:29:57;;;;;;;9.85;1.23;;;11.10;98.40;;;;;;5027364;28;20082;-82
2021/11/08 14:32:26;;;;;;;6.15;0.90;;;11.10;98.40;;;;;;5032727;28;20037;-83
2021/11/08 14:38:01;;;;;;;8.32;1.30;;;11.10;98.40;;;;;;5030787;28;21567;-82
2021/11/08 14:40:38;;;;;;;7.25;1.58;;;11.10;98.60;;;;;;5035892;28;20064;-83
2021/11/08 14:43:14;;;;;;;4.75;1.10;;;11.10;98.40;;;;;;5033142;28;20052;-83